sensor_id;sensor_type;location;lat;lon;timestamp;P1;durP1;ratioP1;P2;durP2;ratioP2
44181;SDS011;30436;48.888;9.202;2022-08-03T00:01:52;3.90;;;3.50;;
44181;SDS011;30436;48.888;9.202;2022-08-03T00:04:18;5.88;;;3.08;;
44181;SDS011;30436;48.888;9.202;2022-08-03T00:06:44;5.60;;;3.72;;
44181;SDS011;30436;48.888;9.202;2022-08-03T00:09:09;4.72;;;3.10;;
44181;SDS011;30436;48.888;9.202;2022-08-03T00:11:35;3.45;;;2.47;;
44181;SDS011;30436;48.888;9.202;2022-08-03T00:14:01;2.78;;;2.47;;
44181;SDS011;30436;48.888;9.202;2022-08-03T00:16:30;3.08;;;2.42;;
44181;SDS011;30436;48.888;9.202;2022-08-03T00:18:56;3.22;;;2.97;;
44181;SDS011;30436;48.888;9.202;2022-08-03T00:21:21;4.47;;;2.60;;
44181;SDS011;30436;48.888;9.202;2022-08-03T00:23:47;3.15;;;2.83;;
44181;SDS011;30436;48.888;9.202;2022-08-03T00:26:13;4.57;;;2.80;;
44181;SDS011;30436;48.888;9.202;2022-08-03T00:28:38;3.17;;;2.72;;
44181;SDS011;30436;48.888;9.202;2022-08-03T00:31:05;3.92;;;3.10;;
44181;SDS011;30436;48.888;9.202;2022-08-03T00:33:31;4.05;;;3.38;;
44181;SDS011;30436;48.888;9.202;2022-08-03T00:35:57;5.55;;;3.65;;
44181;SDS011;30436;48.888;9.202;2022-08-03T00:38:22;3.72;;;3.20;;
44181;SDS011;30436;48.888;9.202;2022-08-03T00:40:48;4.25;;;3.20;;
44181;SDS011;30436;48.888;9.202;2022-08-03T00:43:14;3.67;;;3.20;;
44181;SDS011;30436;48.888;9.202;2022-08-03T00:45:41;4.53;;;3.65;;
44181;SDS011;30436;48.888;9.202;2022-08-03T00:48:07;4.80;;;4.30;;
44181;SDS011;30436;48.888;9.202;2022-08-03T00:50:35;6.35;;;4.35;;
44181;SDS011;30436;48.888;9.202;2022-08-03T00:53:06;6.32;;;4.40;;
44181;SDS011;30436;48.888;9.202;2022-08-03T00:55:34;6.32;;;4.15;;
44181;SDS011;30436;48.888;9.202;2022-08-03T00:58:01;4.97;;;3.83;;
44181;SDS011;30436;48.888;9.202;2022-08-03T01:00:30;5.05;;;4.03;;
44181;SDS011;30436;48.888;9.202;2022-08-03T01:02:57;6.53;;;4.40;;
44181;SDS011;30436;48.888;9.202;2022-08-03T01:05:22;7.40;;;4.03;;
44181;SDS011;30436;48.888;9.202;2022-08-03T01:07:58;5.07;;;4.07;;
44181;SDS011;30436;48.888;9.202;2022-08-03T01:21:33;3.50;;;3.20;;
44181;SDS011;30436;48.888;9.202;2022-08-03T01:24:29;5.60;;;4.05;;
44181;SDS011;30436;48.888;9.202;2022-08-03T01:27:02;3.92;;;3.22;;
44181;SDS011;30436;48.888;9.202;2022-08-03T01:35:07;7.68;;;4.53;;
44181;SDS011;30436;48.888;9.202;2022-08-03T01:37:40;4.28;;;3.88;;
44181;SDS011;30436;48.888;9.202;2022-08-03T01:40:09;5.50;;;3.70;;
44181;SDS011;30436;48.888;9.202;2022-08-03T01:42:37;4.70;;;3.90;;
44181;SDS011;30436;48.888;9.202;2022-08-03T01:45:06;5.15;;;3.83;;
44181;SDS011;30436;48.888;9.202;2022-08-03T01:47:34;4.88;;;3.50;;
44181;SDS011;30436;48.888;9.202;2022-08-03T01:50:01;3.63;;;3.17;;
44181;SDS011;30436;48.888;9.202;2022-08-03T01:52:28;5.10;;;3.97;;
44181;SDS011;30436;48.888;9.202;2022-08-03T01:54:55;4.07;;;3.33;;
44181;SDS011;30436;48.888;9.202;2022-08-03T01:57:22;3.38;;;3.08;;
44181;SDS011;30436;48.888;9.202;2022-08-03T01:59:51;3.80;;;3.25;;
44181;SDS011;30436;48.888;9.202;2022-08-03T02:02:20;3.95;;;3.45;;
44181;SDS011;30436;48.888;9.202;2022-08-03T02:04:48;6.28;;;3.33;;
44181;SDS011;30436;48.888;9.202;2022-08-03T02:07:16;3.28;;;2.97;;
44181;SDS011;30436;48.888;9.202;2022-08-03T02:09:43;3.88;;;3.58;;
44181;SDS011;30436;48.888;9.202;2022-08-03T02:12:11;3.88;;;3.20;;
44181;SDS011;30436;48.888;9.202;2022-08-03T02:14:38;3.67;;;2.90;;
44181;SDS011;30436;48.888;9.202;2022-08-03T02:17:07;3.72;;;3.40;;
44181;SDS011;30436;48.888;9.202;2022-08-03T02:19:33;4.15;;;3.30;;
44181;SDS011;30436;48.888;9.202;2022-08-03T02:22:00;3.20;;;2.95;;
44181;SDS011;30436;48.888;9.202;2022-08-03T02:24:28;3.70;;;3.28;;
44181;SDS011;30436;48.888;9.202;2022-08-03T02:26:55;4.50;;;3.08;;
44181;SDS011;30436;48.888;9.202;2022-08-03T02:29:23;3.85;;;3.28;;
44181;SDS011;30436;48.888;9.202;2022-08-03T02:31:51;4.28;;;3.22;;
44181;SDS011;30436;48.888;9.202;2022-08-03T02:34:21;4.13;;;3.00;;
44181;SDS011;30436;48.888;9.202;2022-08-03T02:36:52;3.70;;;2.90;;
44181;SDS011;30436;48.888;9.202;2022-08-03T02:39:21;5.55;;;3.78;;
44181;SDS011;30436;48.888;9.202;2022-08-03T02:41:50;3.95;;;3.50;;
44181;SDS011;30436;48.888;9.202;2022-08-03T02:44:20;4.35;;;2.90;;
44181;SDS011;30436;48.888;9.202;2022-08-03T02:46:51;3.20;;;2.90;;
44181;SDS011;30436;48.888;9.202;2022-08-03T02:49:19;4.07;;;2.92;;
44181;SDS011;30436;48.888;9.202;2022-08-03T02:51:46;4.05;;;2.70;;
44181;SDS011;30436;48.888;9.202;2022-08-03T02:54:13;3.67;;;3.30;;
44181;SDS011;30436;48.888;9.202;2022-08-03T02:56:42;3.60;;;3.30;;
44181;SDS011;30436;48.888;9.202;2022-08-03T02:59:10;3.50;;;3.08;;
44181;SDS011;30436;48.888;9.202;2022-08-03T03:01:37;5.35;;;3.22;;
44181;SDS011;30436;48.888;9.202;2022-08-03T03:04:04;3.40;;;3.10;;
44181;SDS011;30436;48.888;9.202;2022-08-03T03:06:30;3.95;;;3.53;;
44181;SDS011;30436;48.888;9.202;2022-08-03T03:08:56;4.97;;;3.22;;
44181;SDS011;30436;48.888;9.202;2022-08-03T03:11:23;3.72;;;3.25;;
44181;SDS011;30436;48.888;9.202;2022-08-03T03:13:50;3.38;;;3.08;;
44181;SDS011;30436;48.888;9.202;2022-08-03T03:16:17;4.05;;;3.20;;
44181;SDS011;30436;48.888;9.202;2022-08-03T03:18:44;4.38;;;3.22;;
44181;SDS011;30436;48.888;9.202;2022-08-03T03:21:11;5.40;;;3.88;;
44181;SDS011;30436;48.888;9.202;2022-08-03T03:23:40;3.53;;;3.22;;
44181;SDS011;30436;48.888;9.202;2022-08-03T03:26:07;4.32;;;3.45;;
44181;SDS011;30436;48.888;9.202;2022-08-03T03:28:33;4.30;;;3.42;;
44181;SDS011;30436;48.888;9.202;2022-08-03T03:31:03;6.13;;;3.90;;
44181;SDS011;30436;48.888;9.202;2022-08-03T03:33:30;4.97;;;3.88;;
44181;SDS011;30436;48.888;9.202;2022-08-03T03:35:57;6.97;;;4.10;;
44181;SDS011;30436;48.888;9.202;2022-08-03T03:38:23;4.95;;;3.85;;
44181;SDS011;30436;48.888;9.202;2022-08-03T03:40:48;3.80;;;3.47;;
44181;SDS011;30436;48.888;9.202;2022-08-03T03:43:14;4.32;;;4.00;;
44181;SDS011;30436;48.888;9.202;2022-08-03T03:45:42;5.40;;;4.40;;
44181;SDS011;30436;48.888;9.202;2022-08-03T03:48:09;4.30;;;3.90;;
44181;SDS011;30436;48.888;9.202;2022-08-03T03:50:35;4.32;;;3.85;;
44181;SDS011;30436;48.888;9.202;2022-08-03T03:53:02;4.75;;;4.13;;
44181;SDS011;30436;48.888;9.202;2022-08-03T03:55:28;5.15;;;4.05;;
44181;SDS011;30436;48.888;9.202;2022-08-03T03:57:54;8.95;;;4.90;;
44181;SDS011;30436;48.888;9.202;2022-08-03T04:00:20;6.05;;;4.03;;
44181;SDS011;30436;48.888;9.202;2022-08-03T04:02:46;5.45;;;4.07;;
44181;SDS011;30436;48.888;9.202;2022-08-03T04:05:13;7.70;;;4.70;;
44181;SDS011;30436;48.888;9.202;2022-08-03T04:13:50;6.25;;;4.70;;
44181;SDS011;30436;48.888;9.202;2022-08-03T04:16:29;6.13;;;4.50;;
44181;SDS011;30436;48.888;9.202;2022-08-03T04:19:09;5.80;;;4.80;;
44181;SDS011;30436;48.888;9.202;2022-08-03T04:21:42;5.93;;;4.70;;
44181;SDS011;30436;48.888;9.202;2022-08-03T04:24:11;4.72;;;4.22;;
44181;SDS011;30436;48.888;9.202;2022-08-03T04:26:39;7.15;;;4.70;;
44181;SDS011;30436;48.888;9.202;2022-08-03T04:29:07;5.53;;;4.72;;
44181;SDS011;30436;48.888;9.202;2022-08-03T04:31:35;6.53;;;4.35;;
44181;SDS011;30436;48.888;9.202;2022-08-03T04:34:02;7.25;;;4.43;;
44181;SDS011;30436;48.888;9.202;2022-08-03T04:36:30;6.05;;;4.28;;
44181;SDS011;30436;48.888;9.202;2022-08-03T04:41:25;4.63;;;4.22;;
44181;SDS011;30436;48.888;9.202;2022-08-03T04:43:53;6.40;;;4.55;;
44181;SDS011;30436;48.888;9.202;2022-08-03T04:46:21;6.60;;;4.30;;
44181;SDS011;30436;48.888;9.202;2022-08-03T04:48:50;4.22;;;3.90;;
44181;SDS011;30436;48.888;9.202;2022-08-03T04:51:15;5.50;;;4.15;;
44181;SDS011;30436;48.888;9.202;2022-08-03T04:53:41;6.90;;;4.47;;
44181;SDS011;30436;48.888;9.202;2022-08-03T04:56:08;5.22;;;4.40;;
44181;SDS011;30436;48.888;9.202;2022-08-03T04:58:33;5.65;;;4.15;;
44181;SDS011;30436;48.888;9.202;2022-08-03T05:00:59;6.10;;;3.85;;
44181;SDS011;30436;48.888;9.202;2022-08-03T05:03:25;4.40;;;4.00;;
44181;SDS011;30436;48.888;9.202;2022-08-03T05:05:51;7.28;;;4.45;;
44181;SDS011;30436;48.888;9.202;2022-08-03T05:08:17;7.18;;;4.40;;
44181;SDS011;30436;48.888;9.202;2022-08-03T05:10:42;5.78;;;4.53;;
44181;SDS011;30436;48.888;9.202;2022-08-03T05:13:08;8.95;;;4.40;;
44181;SDS011;30436;48.888;9.202;2022-08-03T05:15:36;5.38;;;4.22;;
44181;SDS011;30436;48.888;9.202;2022-08-03T05:18:03;4.82;;;4.18;;
44181;SDS011;30436;48.888;9.202;2022-08-03T05:20:28;4.43;;;3.55;;
44181;SDS011;30436;48.888;9.202;2022-08-03T05:22:55;7.50;;;4.03;;
44181;SDS011;30436;48.888;9.202;2022-08-03T05:25:21;4.03;;;3.72;;
44181;SDS011;30436;48.888;9.202;2022-08-03T05:27:47;4.22;;;3.75;;
44181;SDS011;30436;48.888;9.202;2022-08-03T05:30:13;4.63;;;3.35;;
44181;SDS011;30436;48.888;9.202;2022-08-03T05:32:39;4.30;;;3.78;;
44181;SDS011;30436;48.888;9.202;2022-08-03T05:35:04;6.00;;;3.85;;
44181;SDS011;30436;48.888;9.202;2022-08-03T05:37:30;3.60;;;3.30;;
44181;SDS011;30436;48.888;9.202;2022-08-03T05:39:56;4.47;;;3.60;;
44181;SDS011;30436;48.888;9.202;2022-08-03T05:42:22;4.63;;;3.72;;
44181;SDS011;30436;48.888;9.202;2022-08-03T05:44:47;5.10;;;3.72;;
44181;SDS011;30436;48.888;9.202;2022-08-03T05:47:13;3.92;;;3.63;;
44181;SDS011;30436;48.888;9.202;2022-08-03T05:49:39;5.05;;;3.58;;
44181;SDS011;30436;48.888;9.202;2022-08-03T05:52:04;4.80;;;3.67;;
44181;SDS011;30436;48.888;9.202;2022-08-03T05:54:30;5.28;;;3.80;;
44181;SDS011;30436;48.888;9.202;2022-08-03T05:56:55;8.35;;;3.75;;
44181;SDS011;30436;48.888;9.202;2022-08-03T05:59:21;4.00;;;3.60;;
44181;SDS011;30436;48.888;9.202;2022-08-03T06:01:47;4.10;;;3.80;;
44181;SDS011;30436;48.888;9.202;2022-08-03T06:04:12;4.03;;;3.63;;
44181;SDS011;30436;48.888;9.202;2022-08-03T06:06:38;5.50;;;3.72;;
44181;SDS011;30436;48.888;9.202;2022-08-03T06:09:04;4.13;;;3.40;;
44181;SDS011;30436;48.888;9.202;2022-08-03T06:11:29;4.93;;;3.95;;
44181;SDS011;30436;48.888;9.202;2022-08-03T06:13:55;5.03;;;3.70;;
44181;SDS011;30436;48.888;9.202;2022-08-03T06:16:21;4.35;;;3.38;;
44181;SDS011;30436;48.888;9.202;2022-08-03T06:18:46;4.50;;;3.58;;
44181;SDS011;30436;48.888;9.202;2022-08-03T06:21:12;6.38;;;3.60;;
44181;SDS011;30436;48.888;9.202;2022-08-03T06:23:41;4.50;;;3.65;;
44181;SDS011;30436;48.888;9.202;2022-08-03T06:26:09;3.60;;;3.30;;
44181;SDS011;30436;48.888;9.202;2022-08-03T06:28:35;4.60;;;3.75;;
44181;SDS011;30436;48.888;9.202;2022-08-03T06:31:01;6.82;;;3.90;;
44181;SDS011;30436;48.888;9.202;2022-08-03T06:33:27;4.28;;;3.80;;
44181;SDS011;30436;48.888;9.202;2022-08-03T06:35:53;3.40;;;3.13;;
44181;SDS011;30436;48.888;9.202;2022-08-03T06:38:19;5.13;;;3.30;;
44181;SDS011;30436;48.888;9.202;2022-08-03T06:40:45;5.25;;;3.38;;
44181;SDS011;30436;48.888;9.202;2022-08-03T06:43:10;3.47;;;3.17;;
44181;SDS011;30436;48.888;9.202;2022-08-03T06:45:38;5.00;;;2.90;;
44181;SDS011;30436;48.888;9.202;2022-08-03T06:48:05;4.13;;;2.85;;
44181;SDS011;30436;48.888;9.202;2022-08-03T06:50:31;3.42;;;3.00;;
44181;SDS011;30436;48.888;9.202;2022-08-03T06:52:57;4.40;;;3.40;;
44181;SDS011;30436;48.888;9.202;2022-08-03T06:55:23;4.65;;;3.08;;
44181;SDS011;30436;48.888;9.202;2022-08-03T06:57:49;3.42;;;2.45;;
44181;SDS011;30436;48.888;9.202;2022-08-03T07:00:14;3.28;;;2.72;;
44181;SDS011;30436;48.888;9.202;2022-08-03T07:02:40;3.13;;;2.70;;
44181;SDS011;30436;48.888;9.202;2022-08-03T07:05:07;3.03;;;2.80;;
44181;SDS011;30436;48.888;9.202;2022-08-03T07:07:33;5.28;;;2.60;;
44181;SDS011;30436;48.888;9.202;2022-08-03T07:09:59;2.90;;;2.53;;
44181;SDS011;30436;48.888;9.202;2022-08-03T07:12:25;9.45;;;2.90;;
44181;SDS011;30436;48.888;9.202;2022-08-03T07:14:52;3.15;;;2.90;;
44181;SDS011;30436;48.888;9.202;2022-08-03T07:17:18;4.85;;;3.10;;
44181;SDS011;30436;48.888;9.202;2022-08-03T07:19:44;4.70;;;2.72;;
44181;SDS011;30436;48.888;9.202;2022-08-03T07:22:09;3.75;;;2.58;;
44181;SDS011;30436;48.888;9.202;2022-08-03T07:24:35;4.75;;;2.60;;
44181;SDS011;30436;48.888;9.202;2022-08-03T07:27:01;2.97;;;2.50;;
44181;SDS011;30436;48.888;9.202;2022-08-03T07:29:27;5.18;;;2.80;;
44181;SDS011;30436;48.888;9.202;2022-08-03T07:31:53;4.18;;;2.42;;
44181;SDS011;30436;48.888;9.202;2022-08-03T07:34:18;3.15;;;2.00;;
44181;SDS011;30436;48.888;9.202;2022-08-03T07:36:44;3.97;;;2.35;;
44181;SDS011;30436;48.888;9.202;2022-08-03T07:39:10;3.22;;;2.40;;
44181;SDS011;30436;48.888;9.202;2022-08-03T07:41:35;2.33;;;2.10;;
44181;SDS011;30436;48.888;9.202;2022-08-03T07:44:01;2.42;;;2.15;;
44181;SDS011;30436;48.888;9.202;2022-08-03T07:46:27;2.78;;;2.03;;
44181;SDS011;30436;48.888;9.202;2022-08-03T07:48:53;4.03;;;2.28;;
44181;SDS011;30436;48.888;9.202;2022-08-03T07:51:18;4.00;;;2.15;;
44181;SDS011;30436;48.888;9.202;2022-08-03T07:53:44;2.22;;;2.03;;
44181;SDS011;30436;48.888;9.202;2022-08-03T07:56:09;2.40;;;1.83;;
44181;SDS011;30436;48.888;9.202;2022-08-03T07:58:35;6.85;;;2.20;;
44181;SDS011;30436;48.888;9.202;2022-08-03T08:01:01;3.60;;;2.50;;
44181;SDS011;30436;48.888;9.202;2022-08-03T08:03:27;3.25;;;2.05;;
44181;SDS011;30436;48.888;9.202;2022-08-03T08:05:52;3.42;;;1.90;;
44181;SDS011;30436;48.888;9.202;2022-08-03T08:08:18;2.63;;;2.30;;
44181;SDS011;30436;48.888;9.202;2022-08-03T08:10:45;3.03;;;1.85;;
44181;SDS011;30436;48.888;9.202;2022-08-03T08:13:11;2.55;;;1.77;;
44181;SDS011;30436;48.888;9.202;2022-08-03T08:15:36;2.00;;;1.88;;
44181;SDS011;30436;48.888;9.202;2022-08-03T08:18:02;3.30;;;1.70;;
44181;SDS011;30436;48.888;9.202;2022-08-03T08:20:29;3.08;;;1.70;;
44181;SDS011;30436;48.888;9.202;2022-08-03T08:23:00;3.85;;;1.90;;
44181;SDS011;30436;48.888;9.202;2022-08-03T08:25:28;2.75;;;1.75;;
44181;SDS011;30436;48.888;9.202;2022-08-03T08:27:55;2.15;;;1.90;;
44181;SDS011;30436;48.888;9.202;2022-08-03T08:30:21;2.17;;;1.73;;
44181;SDS011;30436;48.888;9.202;2022-08-03T08:32:48;4.20;;;1.75;;
44181;SDS011;30436;48.888;9.202;2022-08-03T08:35:14;2.40;;;1.80;;
44181;SDS011;30436;48.888;9.202;2022-08-03T08:37:40;1.23;;;1.20;;
44181;SDS011;30436;48.888;9.202;2022-08-03T08:40:07;2.90;;;1.60;;
44181;SDS011;30436;48.888;9.202;2022-08-03T08:42:38;1.98;;;1.75;;
44181;SDS011;30436;48.888;9.202;2022-08-03T08:45:05;1.35;;;1.25;;
44181;SDS011;30436;48.888;9.202;2022-08-03T08:47:33;1.92;;;1.65;;
44181;SDS011;30436;48.888;9.202;2022-08-03T08:50:04;1.45;;;1.35;;
44181;SDS011;30436;48.888;9.202;2022-08-03T08:52:32;1.95;;;1.48;;
44181;SDS011;30436;48.888;9.202;2022-08-03T08:55:00;2.15;;;1.58;;
44181;SDS011;30436;48.888;9.202;2022-08-03T08:57:38;2.28;;;1.70;;
44181;SDS011;30436;48.888;9.202;2022-08-03T09:00:09;1.85;;;1.30;;
44181;SDS011;30436;48.888;9.202;2022-08-03T09:02:39;1.60;;;1.50;;
44181;SDS011;30436;48.888;9.202;2022-08-03T09:05:10;2.83;;;1.50;;
44181;SDS011;30436;48.888;9.202;2022-08-03T09:07:43;2.45;;;1.40;;
44181;SDS011;30436;48.888;9.202;2022-08-03T09:10:10;3.30;;;1.40;;
44181;SDS011;30436;48.888;9.202;2022-08-03T09:12:38;4.03;;;1.35;;
44181;SDS011;30436;48.888;9.202;2022-08-03T09:15:21;1.10;;;1.10;;
44181;SDS011;30436;48.888;9.202;2022-08-03T09:17:52;2.53;;;1.40;;
44181;SDS011;30436;48.888;9.202;2022-08-03T09:20:21;2.90;;;1.65;;
44181;SDS011;30436;48.888;9.202;2022-08-03T09:25:27;1.48;;;1.35;;
44181;SDS011;30436;48.888;9.202;2022-08-03T09:28:16;1.52;;;1.40;;
44181;SDS011;30436;48.888;9.202;2022-08-03T09:30:44;3.80;;;1.60;;
44181;SDS011;30436;48.888;9.202;2022-08-03T09:33:21;3.00;;;1.58;;
44181;SDS011;30436;48.888;9.202;2022-08-03T09:35:47;1.48;;;1.38;;
44181;SDS011;30436;48.888;9.202;2022-08-03T09:38:17;1.35;;;1.25;;
44181;SDS011;30436;48.888;9.202;2022-08-03T09:40:47;2.15;;;1.63;;
44181;SDS011;30436;48.888;9.202;2022-08-03T09:43:13;1.40;;;1.30;;
44181;SDS011;30436;48.888;9.202;2022-08-03T09:45:39;2.65;;;1.60;;
44181;SDS011;30436;48.888;9.202;2022-08-03T09:48:21;4.00;;;1.70;;
44181;SDS011;30436;48.888;9.202;2022-08-03T09:50:52;2.35;;;1.50;;
44181;SDS011;30436;48.888;9.202;2022-08-03T09:53:20;2.00;;;1.50;;
44181;SDS011;30436;48.888;9.202;2022-08-03T09:58:20;1.55;;;1.45;;
44181;SDS011;30436;48.888;9.202;2022-08-03T10:00:53;3.72;;;1.48;;
44181;SDS011;30436;48.888;9.202;2022-08-03T10:03:22;1.30;;;1.30;;
44181;SDS011;30436;48.888;9.202;2022-08-03T10:05:49;2.75;;;1.63;;
44181;SDS011;30436;48.888;9.202;2022-08-03T10:08:15;1.77;;;1.55;;
44181;SDS011;30436;48.888;9.202;2022-08-03T10:10:43;1.60;;;1.50;;
44181;SDS011;30436;48.888;9.202;2022-08-03T10:13:11;1.95;;;1.50;;
44181;SDS011;30436;48.888;9.202;2022-08-03T10:15:41;2.25;;;1.30;;
44181;SDS011;30436;48.888;9.202;2022-08-03T10:18:07;1.88;;;1.60;;
44181;SDS011;30436;48.888;9.202;2022-08-03T10:20:36;2.08;;;1.50;;
44181;SDS011;30436;48.888;9.202;2022-08-03T10:23:16;2.72;;;1.50;;
44181;SDS011;30436;48.888;9.202;2022-08-03T10:25:43;1.55;;;1.45;;
44181;SDS011;30436;48.888;9.202;2022-08-03T10:28:12;5.07;;;1.58;;
44181;SDS011;30436;48.888;9.202;2022-08-03T10:30:41;1.52;;;1.40;;
44181;SDS011;30436;48.888;9.202;2022-08-03T10:33:21;2.42;;;1.80;;
44181;SDS011;30436;48.888;9.202;2022-08-03T10:35:52;7.88;;;1.88;;
44181;SDS011;30436;48.888;9.202;2022-08-03T10:38:22;1.80;;;1.50;;
44181;SDS011;30436;48.888;9.202;2022-08-03T10:40:53;2.33;;;1.50;;
44181;SDS011;30436;48.888;9.202;2022-08-03T10:43:20;3.08;;;1.60;;
44181;SDS011;30436;48.888;9.202;2022-08-03T10:45:50;4.28;;;1.65;;
44181;SDS011;30436;48.888;9.202;2022-08-03T10:48:16;1.60;;;1.50;;
44181;SDS011;30436;48.888;9.202;2022-08-03T10:50:43;2.03;;;1.77;;
44181;SDS011;30436;48.888;9.202;2022-08-03T10:53:10;1.90;;;1.70;;
44181;SDS011;30436;48.888;9.202;2022-08-03T10:55:39;1.95;;;1.50;;
44181;SDS011;30436;48.888;9.202;2022-08-03T11:01:05;2.67;;;1.70;;
44181;SDS011;30436;48.888;9.202;2022-08-03T11:03:33;2.63;;;1.77;;
44181;SDS011;30436;48.888;9.202;2022-08-03T11:06:20;3.90;;;1.77;;
44181;SDS011;30436;48.888;9.202;2022-08-03T11:08:49;1.80;;;1.70;;
44181;SDS011;30436;48.888;9.202;2022-08-03T11:11:38;1.75;;;1.38;;
44181;SDS011;30436;48.888;9.202;2022-08-03T11:14:12;1.73;;;1.45;;
44181;SDS011;30436;48.888;9.202;2022-08-03T11:16:40;1.88;;;1.67;;
44181;SDS011;30436;48.888;9.202;2022-08-03T11:19:13;1.45;;;1.30;;
44181;SDS011;30436;48.888;9.202;2022-08-03T11:27:15;2.60;;;1.60;;
44181;SDS011;30436;48.888;9.202;2022-08-03T11:33:11;1.90;;;1.80;;
44181;SDS011;30436;48.888;9.202;2022-08-03T11:35:12;1.40;;;1.30;;
44181;SDS011;30436;48.888;9.202;2022-08-03T11:45:58;1.75;;;1.65;;
44181;SDS011;30436;48.888;9.202;2022-08-03T11:48:35;2.65;;;1.70;;
44181;SDS011;30436;48.888;9.202;2022-08-03T11:51:17;2.75;;;1.88;;
44181;SDS011;30436;48.888;9.202;2022-08-03T11:53:51;4.57;;;1.90;;
44181;SDS011;30436;48.888;9.202;2022-08-03T11:56:17;2.33;;;1.60;;
44181;SDS011;30436;48.888;9.202;2022-08-03T11:58:51;2.97;;;1.40;;
44181;SDS011;30436;48.888;9.202;2022-08-03T12:01:21;3.38;;;1.33;;
44181;SDS011;30436;48.888;9.202;2022-08-03T12:03:47;3.10;;;1.77;;
44181;SDS011;30436;48.888;9.202;2022-08-03T12:06:14;1.67;;;1.58;;
44181;SDS011;30436;48.888;9.202;2022-08-03T12:08:41;2.10;;;1.65;;
44181;SDS011;30436;48.888;9.202;2022-08-03T12:11:08;1.50;;;1.40;;
44181;SDS011;30436;48.888;9.202;2022-08-03T12:13:40;2.00;;;1.50;;
44181;SDS011;30436;48.888;9.202;2022-08-03T12:16:08;1.50;;;1.40;;
44181;SDS011;30436;48.888;9.202;2022-08-03T12:18:34;1.63;;;1.52;;
44181;SDS011;30436;48.888;9.202;2022-08-03T12:21:07;2.42;;;1.88;;
44181;SDS011;30436;48.888;9.202;2022-08-03T12:23:34;1.80;;;1.70;;
44181;SDS011;30436;48.888;9.202;2022-08-03T12:26:01;1.70;;;1.60;;
44181;SDS011;30436;48.888;9.202;2022-08-03T12:28:29;2.13;;;1.60;;
44181;SDS011;30436;48.888;9.202;2022-08-03T12:30:55;2.30;;;1.40;;
44181;SDS011;30436;48.888;9.202;2022-08-03T12:33:27;1.92;;;1.73;;
44181;SDS011;30436;48.888;9.202;2022-08-03T12:36:03;3.40;;;1.50;;
44181;SDS011;30436;48.888;9.202;2022-08-03T12:38:31;1.75;;;1.65;;
44181;SDS011;30436;48.888;9.202;2022-08-03T12:40:59;1.42;;;1.30;;
44181;SDS011;30436;48.888;9.202;2022-08-03T12:43:33;2.33;;;1.50;;
44181;SDS011;30436;48.888;9.202;2022-08-03T12:46:06;2.08;;;1.55;;
44181;SDS011;30436;48.888;9.202;2022-08-03T12:48:35;1.52;;;1.42;;
44181;SDS011;30436;48.888;9.202;2022-08-03T12:51:10;1.52;;;1.42;;
44181;SDS011;30436;48.888;9.202;2022-08-03T12:53:36;1.80;;;1.70;;
44181;SDS011;30436;48.888;9.202;2022-08-03T12:56:02;1.67;;;1.58;;
44181;SDS011;30436;48.888;9.202;2022-08-03T12:58:30;3.20;;;1.50;;
44181;SDS011;30436;48.888;9.202;2022-08-03T13:00:57;2.13;;;1.58;;
44181;SDS011;30436;48.888;9.202;2022-08-03T13:03:23;1.95;;;1.70;;
44181;SDS011;30436;48.888;9.202;2022-08-03T13:05:49;1.83;;;1.70;;
44181;SDS011;30436;48.888;9.202;2022-08-03T13:08:22;1.63;;;1.52;;
44181;SDS011;30436;48.888;9.202;2022-08-03T13:10:49;1.60;;;1.50;;
44181;SDS011;30436;48.888;9.202;2022-08-03T13:13:15;4.22;;;1.70;;
44181;SDS011;30436;48.888;9.202;2022-08-03T13:15:41;2.20;;;1.40;;
44181;SDS011;30436;48.888;9.202;2022-08-03T13:18:07;1.80;;;1.70;;
44181;SDS011;30436;48.888;9.202;2022-08-03T13:20:33;2.05;;;1.48;;
44181;SDS011;30436;48.888;9.202;2022-08-03T13:22:59;1.40;;;1.30;;
44181;SDS011;30436;48.888;9.202;2022-08-03T13:25:25;1.88;;;1.58;;
44181;SDS011;30436;48.888;9.202;2022-08-03T13:27:51;1.95;;;1.48;;
44181;SDS011;30436;48.888;9.202;2022-08-03T13:30:17;1.42;;;1.33;;
44181;SDS011;30436;48.888;9.202;2022-08-03T13:32:42;2.28;;;1.38;;
44181;SDS011;30436;48.888;9.202;2022-08-03T13:35:08;2.17;;;1.55;;
44181;SDS011;30436;48.888;9.202;2022-08-03T13:37:35;1.50;;;1.40;;
44181;SDS011;30436;48.888;9.202;2022-08-03T13:40:01;1.50;;;1.40;;
44181;SDS011;30436;48.888;9.202;2022-08-03T13:42:30;2.30;;;1.42;;
44181;SDS011;30436;48.888;9.202;2022-08-03T13:44:56;1.67;;;1.48;;
44181;SDS011;30436;48.888;9.202;2022-08-03T13:47:22;2.72;;;1.40;;
44181;SDS011;30436;48.888;9.202;2022-08-03T13:49:48;1.55;;;1.45;;
44181;SDS011;30436;48.888;9.202;2022-08-03T13:52:15;2.42;;;1.63;;
44181;SDS011;30436;48.888;9.202;2022-08-03T13:54:41;2.10;;;1.60;;
44181;SDS011;30436;48.888;9.202;2022-08-03T13:57:07;2.65;;;1.65;;
44181;SDS011;30436;48.888;9.202;2022-08-03T13:59:32;2.80;;;1.65;;
44181;SDS011;30436;48.888;9.202;2022-08-03T14:01:58;2.45;;;1.50;;
44181;SDS011;30436;48.888;9.202;2022-08-03T14:04:24;3.50;;;1.77;;
44181;SDS011;30436;48.888;9.202;2022-08-03T14:06:49;1.50;;;1.40;;
44181;SDS011;30436;48.888;9.202;2022-08-03T14:09:15;2.15;;;1.63;;
44181;SDS011;30436;48.888;9.202;2022-08-03T14:11:41;2.00;;;1.48;;
44181;SDS011;30436;48.888;9.202;2022-08-03T14:14:08;1.85;;;1.42;;
44181;SDS011;30436;48.888;9.202;2022-08-03T14:16:35;3.40;;;1.80;;
44181;SDS011;30436;48.888;9.202;2022-08-03T14:19:01;1.63;;;1.35;;
44181;SDS011;30436;48.888;9.202;2022-08-03T14:21:27;1.75;;;1.50;;
44181;SDS011;30436;48.888;9.202;2022-08-03T14:23:54;3.50;;;1.48;;
44181;SDS011;30436;48.888;9.202;2022-08-03T14:26:20;1.50;;;1.40;;
44181;SDS011;30436;48.888;9.202;2022-08-03T14:28:46;1.60;;;1.50;;
44181;SDS011;30436;48.888;9.202;2022-08-03T14:31:12;4.10;;;1.55;;
44181;SDS011;30436;48.888;9.202;2022-08-03T14:33:38;2.10;;;1.30;;
44181;SDS011;30436;48.888;9.202;2022-08-03T14:36:03;2.63;;;1.60;;
44181;SDS011;30436;48.888;9.202;2022-08-03T14:38:30;1.40;;;1.30;;
44181;SDS011;30436;48.888;9.202;2022-08-03T14:40:56;2.17;;;1.60;;
44181;SDS011;30436;48.888;9.202;2022-08-03T14:43:22;1.10;;;1.10;;
44181;SDS011;30436;48.888;9.202;2022-08-03T14:45:48;1.77;;;1.60;;
44181;SDS011;30436;48.888;9.202;2022-08-03T14:48:18;2.38;;;1.30;;
44181;SDS011;30436;48.888;9.202;2022-08-03T14:50:44;1.70;;;1.60;;
44181;SDS011;30436;48.888;9.202;2022-08-03T14:53:09;1.52;;;1.40;;
44181;SDS011;30436;48.888;9.202;2022-08-03T14:55:35;1.60;;;1.50;;
44181;SDS011;30436;48.888;9.202;2022-08-03T14:58:01;1.33;;;1.30;;
44181;SDS011;30436;48.888;9.202;2022-08-03T15:00:33;1.60;;;1.38;;
44181;SDS011;30436;48.888;9.202;2022-08-03T15:02:59;1.90;;;1.65;;
44181;SDS011;30436;48.888;9.202;2022-08-03T15:05:26;1.58;;;1.40;;
44181;SDS011;30436;48.888;9.202;2022-08-03T15:07:52;2.03;;;1.65;;
44181;SDS011;30436;48.888;9.202;2022-08-03T15:10:17;1.92;;;1.48;;
44181;SDS011;30436;48.888;9.202;2022-08-03T15:12:44;1.40;;;1.30;;
44181;SDS011;30436;48.888;9.202;2022-08-03T15:15:09;1.50;;;1.40;;
44181;SDS011;30436;48.888;9.202;2022-08-03T15:17:35;1.63;;;1.52;;
44181;SDS011;30436;48.888;9.202;2022-08-03T15:20:02;1.40;;;1.30;;
44181;SDS011;30436;48.888;9.202;2022-08-03T15:22:28;1.55;;;1.45;;
44181;SDS011;30436;48.888;9.202;2022-08-03T15:24:54;2.17;;;1.48;;
44181;SDS011;30436;48.888;9.202;2022-08-03T15:27:20;2.00;;;1.55;;
44181;SDS011;30436;48.888;9.202;2022-08-03T15:29:46;1.67;;;1.58;;
44181;SDS011;30436;48.888;9.202;2022-08-03T15:32:12;1.70;;;1.60;;
44181;SDS011;30436;48.888;9.202;2022-08-03T15:34:38;1.50;;;1.40;;
44181;SDS011;30436;48.888;9.202;2022-08-03T15:37:04;1.50;;;1.20;;
44181;SDS011;30436;48.888;9.202;2022-08-03T15:39:31;1.55;;;1.30;;
44181;SDS011;30436;48.888;9.202;2022-08-03T15:41:56;2.63;;;1.50;;